sensor_id;sensor_type;location;lat;lon;timestamp;temperature;humidity
54960;DHT22;40860;51.710;8.736;2023-08-21T00:03:44;20.60;96.50
54960;DHT22;40860;51.710;8.736;2023-08-21T00:07:48;20.60;96.90
54960;DHT22;40860;51.710;8.736;2023-08-21T00:11:52;20.50;96.70
54960;DHT22;40860;51.710;8.736;2023-08-21T00:15:57;20.40;97.20
54960;DHT22;40860;51.710;8.736;2023-08-21T00:19:59;20.40;97.30
54960;DHT22;40860;51.710;8.736;2023-08-21T00:24:03;20.40;97.80
54960;DHT22;40860;51.710;8.736;2023-08-21T00:28:06;20.30;98.20
54960;DHT22;40860;51.710;8.736;2023-08-21T00:32:11;20.30;98.30
54960;DHT22;40860;51.710;8.736;2023-08-21T00:36:14;20.30;98.40
54960;DHT22;40860;51.710;8.736;2023-08-21T00:40:17;20.20;98.60
54960;DHT22;40860;51.710;8.736;2023-08-21T00:44:20;20.20;98.50
54960;DHT22;40860;51.710;8.736;2023-08-21T00:48:25;20.20;98.70
54960;DHT22;40860;51.710;8.736;2023-08-21T00:52:28;20.10;98.60
54960;DHT22;40860;51.710;8.736;2023-08-21T00:56:31;20.10;98.60
54960;DHT22;40860;51.710;8.736;2023-08-21T01:00:35;20.00;98.60
54960;DHT22;40860;51.710;8.736;2023-08-21T01:04:39;19.90;98.80
54960;DHT22;40860;51.710;8.736;2023-08-21T01:08:47;19.90;98.90
54960;DHT22;40860;51.710;8.736;2023-08-21T01:12:57;19.80;99.40
54960;DHT22;40860;51.710;8.736;2023-08-21T01:17:04;19.60;99.90
54960;DHT22;40860;51.710;8.736;2023-08-21T01:21:10;19.50;99.90
54960;DHT22;40860;51.710;8.736;2023-08-21T01:25:15;19.50;99.90
54960;DHT22;40860;51.710;8.736;2023-08-21T01:29:18;19.60;99.90
54960;DHT22;40860;51.710;8.736;2023-08-21T01:33:23;19.50;99.90
54960;DHT22;40860;51.710;8.736;2023-08-21T01:37:26;19.40;99.90
54960;DHT22;40860;51.710;8.736;2023-08-21T01:41:32;19.30;99.90
54960;DHT22;40860;51.710;8.736;2023-08-21T01:45:35;19.20;99.90
54960;DHT22;40860;51.710;8.736;2023-08-21T01:49:37;19.20;99.90
54960;DHT22;40860;51.710;8.736;2023-08-21T01:53:40;19.20;99.90
54960;DHT22;40860;51.710;8.736;2023-08-21T01:57:44;19.00;99.90
54960;DHT22;40860;51.710;8.736;2023-08-21T02:01:48;19.00;99.90
54960;DHT22;40860;51.710;8.736;2023-08-21T02:05:54;18.90;99.90
54960;DHT22;40860;51.710;8.736;2023-08-21T02:09:58;18.90;99.90
54960;DHT22;40860;51.710;8.736;2023-08-21T02:14:03;18.80;99.90
54960;DHT22;40860;51.710;8.736;2023-08-21T02:18:06;18.70;99.90
54960;DHT22;40860;51.710;8.736;2023-08-21T02:22:09;18.60;99.90
54960;DHT22;40860;51.710;8.736;2023-08-21T02:26:12;18.60;99.90
54960;DHT22;40860;51.710;8.736;2023-08-21T02:30:16;18.60;99.90
54960;DHT22;40860;51.710;8.736;2023-08-21T02:34:20;18.60;99.90
54960;DHT22;40860;51.710;8.736;2023-08-21T02:38:23;18.50;99.90
54960;DHT22;40860;51.710;8.736;2023-08-21T02:42:26;18.50;99.90
54960;DHT22;40860;51.710;8.736;2023-08-21T02:46:31;18.50;99.90
54960;DHT22;40860;51.710;8.736;2023-08-21T02:50:35;18.50;99.90
54960;DHT22;40860;51.710;8.736;2023-08-21T02:54:38;18.40;99.90
54960;DHT22;40860;51.710;8.736;2023-08-21T02:58:43;18.40;99.90
54960;DHT22;40860;51.710;8.736;2023-08-21T03:02:48;18.40;99.90
54960;DHT22;40860;51.710;8.736;2023-08-21T03:06:51;18.40;99.90
54960;DHT22;40860;51.710;8.736;2023-08-21T03:10:54;18.30;99.90
54960;DHT22;40860;51.710;8.736;2023-08-21T03:14:57;18.30;99.90
54960;DHT22;40860;51.710;8.736;2023-08-21T03:19:02;18.30;99.90
54960;DHT22;40860;51.710;8.736;2023-08-21T03:23:06;18.20;99.90
54960;DHT22;40860;51.710;8.736;2023-08-21T03:27:09;18.20;99.90
54960;DHT22;40860;51.710;8.736;2023-08-21T03:31:11;18.20;99.90
54960;DHT22;40860;51.710;8.736;2023-08-21T03:35:16;18.20;99.90
54960;DHT22;40860;51.710;8.736;2023-08-21T03:39:20;18.20;99.90
54960;DHT22;40860;51.710;8.736;2023-08-21T03:43:23;18.20;99.90
54960;DHT22;40860;51.710;8.736;2023-08-21T03:47:26;18.30;99.90
54960;DHT22;40860;51.710;8.736;2023-08-21T03:51:36;18.30;99.90
54960;DHT22;40860;51.710;8.736;2023-08-21T03:55:39;18.20;99.90
54960;DHT22;40860;51.710;8.736;2023-08-21T03:59:43;18.10;99.90
54960;DHT22;40860;51.710;8.736;2023-08-21T04:03:47;18.20;99.90
54960;DHT22;40860;51.710;8.736;2023-08-21T04:07:52;18.10;99.90
54960;DHT22;40860;51.710;8.736;2023-08-21T04:11:54;18.10;99.90
54960;DHT22;40860;51.710;8.736;2023-08-21T04:15:57;18.10;99.90
54960;DHT22;40860;51.710;8.736;2023-08-21T04:20:00;18.10;99.90
54960;DHT22;40860;51.710;8.736;2023-08-21T04:24:05;18.10;99.90
54960;DHT22;40860;51.710;8.736;2023-08-21T04:28:08;18.10;99.90
54960;DHT22;40860;51.710;8.736;2023-08-21T04:32:13;18.00;99.90
54960;DHT22;40860;51.710;8.736;2023-08-21T04:36:16;18.00;99.90
54960;DHT22;40860;51.710;8.736;2023-08-21T04:40:25;18.10;99.90
54960;DHT22;40860;51.710;8.736;2023-08-21T04:44:30;18.20;99.90
54960;DHT22;40860;51.710;8.736;2023-08-21T04:48:33;18.20;99.90
54960;DHT22;40860;51.710;8.736;2023-08-21T04:52:36;18.30;99.90
54960;DHT22;40860;51.710;8.736;2023-08-21T04:56:41;18.40;99.90
54960;DHT22;40860;51.710;8.736;2023-08-21T05:00:47;18.40;99.90
54960;DHT22;40860;51.710;8.736;2023-08-21T05:04:50;18.40;99.90
54960;DHT22;40860;51.710;8.736;2023-08-21T05:08:54;18.40;99.90
54960;DHT22;40860;51.710;8.736;2023-08-21T05:12:58;18.40;99.90
54960;DHT22;40860;51.710;8.736;2023-08-21T05:17:04;18.40;99.90
54960;DHT22;40860;51.710;8.736;2023-08-21T05:21:07;18.40;99.90
54960;DHT22;40860;51.710;8.736;2023-08-21T05:25:11;18.30;99.90
54960;DHT22;40860;51.710;8.736;2023-08-21T05:29:15;18.50;99.90
54960;DHT22;40860;51.710;8.736;2023-08-21T05:33:18;18.50;99.90
54960;DHT22;40860;51.710;8.736;2023-08-21T05:37:24;18.60;99.90
54960;DHT22;40860;51.710;8.736;2023-08-21T05:41:29;18.80;99.90
54960;DHT22;40860;51.710;8.736;2023-08-21T05:45:34;19.10;99.90
54960;DHT22;40860;51.710;8.736;2023-08-21T05:49:37;19.50;99.90
54960;DHT22;40860;51.710;8.736;2023-08-21T05:53:40;19.60;99.90
54960;DHT22;40860;51.710;8.736;2023-08-21T05:57:43;19.90;99.90
54960;DHT22;40860;51.710;8.736;2023-08-21T06:01:47;19.70;99.90
54960;DHT22;40860;51.710;8.736;2023-08-21T06:05:51;19.70;99.90
54960;DHT22;40860;51.710;8.736;2023-08-21T06:09:54;19.70;99.90
54960;DHT22;40860;51.710;8.736;2023-08-21T06:13:57;19.80;99.90
54960;DHT22;40860;51.710;8.736;2023-08-21T06:18:02;19.90;99.90
54960;DHT22;40860;51.710;8.736;2023-08-21T06:22:05;20.00;99.90
54960;DHT22;40860;51.710;8.736;2023-08-21T06:26:08;20.00;99.90
54960;DHT22;40860;51.710;8.736;2023-08-21T06:30:12;20.20;99.90
54960;DHT22;40860;51.710;8.736;2023-08-21T06:34:17;20.30;99.80
54960;DHT22;40860;51.710;8.736;2023-08-21T06:38:20;20.40;98.80
54960;DHT22;40860;51.710;8.736;2023-08-21T06:42:23;20.40;98.10
54960;DHT22;40860;51.710;8.736;2023-08-21T06:46:26;20.50;97.70
54960;DHT22;40860;51.710;8.736;2023-08-21T06:50:30;20.60;96.90
54960;DHT22;40860;51.710;8.736;2023-08-21T06:54:33;20.60;97.40
54960;DHT22;40860;51.710;8.736;2023-08-21T06:58:36;20.60;96.90
54960;DHT22;40860;51.710;8.736;2023-08-21T07:02:39;20.80;97.40
54960;DHT22;40860;51.710;8.736;2023-08-21T07:06:43;20.80;97.00
54960;DHT22;40860;51.710;8.736;2023-08-21T07:10:46;20.90;97.00
54960;DHT22;40860;51.710;8.736;2023-08-21T07:14:49;21.00;96.40
54960;DHT22;40860;51.710;8.736;2023-08-21T07:18:52;21.10;94.80
54960;DHT22;40860;51.710;8.736;2023-08-21T07:22:57;21.30;95.10
54960;DHT22;40860;51.710;8.736;2023-08-21T07:27:00;21.40;93.90
54960;DHT22;40860;51.710;8.736;2023-08-21T07:31:03;21.50;93.70
54960;DHT22;40860;51.710;8.736;2023-08-21T07:35:06;21.80;93.20
54960;DHT22;40860;51.710;8.736;2023-08-21T07:39:10;22.00;93.20
54960;DHT22;40860;51.710;8.736;2023-08-21T07:43:13;22.00;93.10
54960;DHT22;40860;51.710;8.736;2023-08-21T07:47:16;22.30;93.60
54960;DHT22;40860;51.710;8.736;2023-08-21T07:51:19;22.80;92.80
54960;DHT22;40860;51.710;8.736;2023-08-21T07:55:26;23.20;93.00
54960;DHT22;40860;51.710;8.736;2023-08-21T07:59:29;23.20;93.30
54960;DHT22;40860;51.710;8.736;2023-08-21T08:03:32;23.20;91.30
54960;DHT22;40860;51.710;8.736;2023-08-21T08:07:35;23.20;91.10
54960;DHT22;40860;51.710;8.736;2023-08-21T08:11:41;23.70;92.10
54960;DHT22;40860;51.710;8.736;2023-08-21T08:15:44;24.20;90.00
54960;DHT22;40860;51.710;8.736;2023-08-21T08:19:47;23.90;89.20
54960;DHT22;40860;51.710;8.736;2023-08-21T08:23:50;23.70;91.30
54960;DHT22;40860;51.710;8.736;2023-08-21T08:27:54;24.10;90.50
54960;DHT22;40860;51.710;8.736;2023-08-21T08:31:57;24.60;87.50
54960;DHT22;40860;51.710;8.736;2023-08-21T08:36:00;24.60;84.60
54960;DHT22;40860;51.710;8.736;2023-08-21T08:40:04;24.80;82.10
54960;DHT22;40860;51.710;8.736;2023-08-21T08:48:13;25.20;78.30
54960;DHT22;40860;51.710;8.736;2023-08-21T08:52:16;25.50;82.90
54960;DHT22;40860;51.710;8.736;2023-08-21T08:56:21;25.80;80.90
54960;DHT22;40860;51.710;8.736;2023-08-21T09:00:26;26.10;76.40
54960;DHT22;40860;51.710;8.736;2023-08-21T09:04:28;26.10;73.60
54960;DHT22;40860;51.710;8.736;2023-08-21T09:08:31;26.10;73.10
54960;DHT22;40860;51.710;8.736;2023-08-21T09:12:34;26.30;75.20
54960;DHT22;40860;51.710;8.736;2023-08-21T09:16:58;26.20;73.10
54960;DHT22;40860;51.710;8.736;2023-08-21T09:21:02;26.30;72.10
54960;DHT22;40860;51.710;8.736;2023-08-21T09:25:07;26.40;72.40
54960;DHT22;40860;51.710;8.736;2023-08-21T09:29:11;26.40;70.70
54960;DHT22;40860;51.710;8.736;2023-08-21T09:33:18;26.60;73.20
54960;DHT22;40860;51.710;8.736;2023-08-21T09:37:27;26.80;71.90
54960;DHT22;40860;51.710;8.736;2023-08-21T09:41:30;26.80;69.90
54960;DHT22;40860;51.710;8.736;2023-08-21T09:45:33;26.80;72.30
54960;DHT22;40860;51.710;8.736;2023-08-21T09:49:38;27.00;70.20
54960;DHT22;40860;51.710;8.736;2023-08-21T09:53:42;27.40;69.60
54960;DHT22;40860;51.710;8.736;2023-08-21T09:57:45;27.70;71.80
54960;DHT22;40860;51.710;8.736;2023-08-21T10:01:52;27.60;69.30
54960;DHT22;40860;51.710;8.736;2023-08-21T10:05:58;27.70;65.80
54960;DHT22;40860;51.710;8.736;2023-08-21T10:10:01;27.60;65.80
54960;DHT22;40860;51.710;8.736;2023-08-21T10:14:04;27.60;68.90
54960;DHT22;40860;51.710;8.736;2023-08-21T10:18:20;27.90;68.20
54960;DHT22;40860;51.710;8.736;2023-08-21T10:22:47;28.20;66.70
54960;DHT22;40860;51.710;8.736;2023-08-21T10:26:58;28.20;67.00
54960;DHT22;40860;51.710;8.736;2023-08-21T10:31:30;28.00;66.50
54960;DHT22;40860;51.710;8.736;2023-08-21T10:35:34;28.00;68.00
54960;DHT22;40860;51.710;8.736;2023-08-21T10:39:55;27.70;67.30
54960;DHT22;40860;51.710;8.736;2023-08-21T10:43:58;27.60;69.50
54960;DHT22;40860;51.710;8.736;2023-08-21T10:48:02;27.50;70.30
54960;DHT22;40860;51.710;8.736;2023-08-21T10:52:06;27.50;69.20
54960;DHT22;40860;51.710;8.736;2023-08-21T10:56:11;27.60;70.40
54960;DHT22;40860;51.710;8.736;2023-08-21T11:00:15;27.50;71.00
54960;DHT22;40860;51.710;8.736;2023-08-21T11:04:19;27.10;70.90
54960;DHT22;40860;51.710;8.736;2023-08-21T11:08:22;27.00;72.10
54960;DHT22;40860;51.710;8.736;2023-08-21T11:12:27;27.00;72.70
54960;DHT22;40860;51.710;8.736;2023-08-21T11:16:30;26.90;73.60
54960;DHT22;40860;51.710;8.736;2023-08-21T11:20:35;26.80;74.60
54960;DHT22;40860;51.710;8.736;2023-08-21T11:24:42;26.90;74.30
54960;DHT22;40860;51.710;8.736;2023-08-21T11:28:47;27.10;72.50
54960;DHT22;40860;51.710;8.736;2023-08-21T11:33:05;27.30;73.30
54960;DHT22;40860;51.710;8.736;2023-08-21T11:37:08;27.40;72.50
54960;DHT22;40860;51.710;8.736;2023-08-21T11:41:11;27.50;73.40
54960;DHT22;40860;51.710;8.736;2023-08-21T11:45:15;27.60;73.10
54960;DHT22;40860;51.710;8.736;2023-08-21T11:49:18;27.50;72.50
54960;DHT22;40860;51.710;8.736;2023-08-21T11:53:36;27.50;71.70
54960;DHT22;40860;51.710;8.736;2023-08-21T11:57:49;27.30;73.00
54960;DHT22;40860;51.710;8.736;2023-08-21T12:01:53;27.40;72.70
54960;DHT22;40860;51.710;8.736;2023-08-21T12:05:56;27.40;72.60
54960;DHT22;40860;51.710;8.736;2023-08-21T12:09:59;27.50;73.20
54960;DHT22;40860;51.710;8.736;2023-08-21T12:14:02;27.60;72.60
54960;DHT22;40860;51.710;8.736;2023-08-21T12:18:06;27.60;71.80
54960;DHT22;40860;51.710;8.736;2023-08-21T12:22:09;27.60;73.20
54960;DHT22;40860;51.710;8.736;2023-08-21T12:26:13;27.50;72.20
54960;DHT22;40860;51.710;8.736;2023-08-21T12:30:22;27.80;72.10
54960;DHT22;40860;51.710;8.736;2023-08-21T12:34:26;27.90;72.40
54960;DHT22;40860;51.710;8.736;2023-08-21T12:38:29;27.80;72.10
54960;DHT22;40860;51.710;8.736;2023-08-21T12:42:32;27.80;71.10
54960;DHT22;40860;51.710;8.736;2023-08-21T12:46:37;27.90;71.20
54960;DHT22;40860;51.710;8.736;2023-08-21T12:50:42;28.00;71.60
54960;DHT22;40860;51.710;8.736;2023-08-21T12:54:45;28.20;71.40
54960;DHT22;40860;51.710;8.736;2023-08-21T12:58:48;28.20;71.20
54960;DHT22;40860;51.710;8.736;2023-08-21T13:02:51;28.20;71.00
54960;DHT22;40860;51.710;8.736;2023-08-21T13:06:55;28.30;72.10
54960;DHT22;40860;51.710;8.736;2023-08-21T13:10:59;28.10;71.90
54960;DHT22;40860;51.710;8.736;2023-08-21T13:15:02;28.00;71.90
54960;DHT22;40860;51.710;8.736;2023-08-21T13:19:09;27.70;72.80
54960;DHT22;40860;51.710;8.736;2023-08-21T13:23:13;27.90;73.30
54960;DHT22;40860;51.710;8.736;2023-08-21T13:27:16;28.00;72.70
54960;DHT22;40860;51.710;8.736;2023-08-21T13:31:19;28.10;72.20
54960;DHT22;40860;51.710;8.736;2023-08-21T13:35:22;28.00;71.70
54960;DHT22;40860;51.710;8.736;2023-08-21T13:39:26;28.10;72.80
54960;DHT22;40860;51.710;8.736;2023-08-21T13:43:29;28.10;71.90
54960;DHT22;40860;51.710;8.736;2023-08-21T13:47:34;28.00;71.30
54960;DHT22;40860;51.710;8.736;2023-08-21T13:51:38;27.90;71.70
54960;DHT22;40860;51.710;8.736;2023-08-21T13:55:42;27.90;71.00
54960;DHT22;40860;51.710;8.736;2023-08-21T13:59:45;27.90;70.50
54960;DHT22;40860;51.710;8.736;2023-08-21T14:03:48;28.00;71.70
54960;DHT22;40860;51.710;8.736;2023-08-21T14:07:51;28.10;70.10
54960;DHT22;40860;51.710;8.736;2023-08-21T14:11:55;27.90;70.70
54960;DHT22;40860;51.710;8.736;2023-08-21T14:15:58;27.70;71.50
54960;DHT22;40860;51.710;8.736;2023-08-21T14:20:01;27.70;71.80
54960;DHT22;40860;51.710;8.736;2023-08-21T14:24:04;27.80;71.80
54960;DHT22;40860;51.710;8.736;2023-08-21T14:28:10;27.90;71.90
54960;DHT22;40860;51.710;8.736;2023-08-21T14:32:13;28.00;71.30
54960;DHT22;40860;51.710;8.736;2023-08-21T14:36:16;28.30;71.50
54960;DHT22;40860;51.710;8.736;2023-08-21T14:40:19;28.70;69.60
54960;DHT22;40860;51.710;8.736;2023-08-21T14:44:29;29.40;69.60
54960;DHT22;40860;51.710;8.736;2023-08-21T14:48:32;29.50;66.20
54960;DHT22;40860;51.710;8.736;2023-08-21T14:52:35;29.70;65.80
54960;DHT22;40860;51.710;8.736;2023-08-21T14:56:38;30.20;63.90
54960;DHT22;40860;51.710;8.736;2023-08-21T15:00:42;30.20;63.00
54960;DHT22;40860;51.710;8.736;2023-08-21T15:04:45;30.50;64.10
54960;DHT22;40860;51.710;8.736;2023-08-21T15:08:48;30.10;63.00
54960;DHT22;40860;51.710;8.736;2023-08-21T15:12:51;30.10;62.80
54960;DHT22;40860;51.710;8.736;2023-08-21T15:16:59;30.20;63.40
54960;DHT22;40860;51.710;8.736;2023-08-21T15:21:19;30.00;62.60
54960;DHT22;40860;51.710;8.736;2023-08-21T15:25:22;30.00;63.00
54960;DHT22;40860;51.710;8.736;2023-08-21T15:29:25;30.10;62.50
54960;DHT22;40860;51.710;8.736;2023-08-21T15:33:29;30.20;62.30
54960;DHT22;40860;51.710;8.736;2023-08-21T15:37:32;30.20;61.70
54960;DHT22;40860;51.710;8.736;2023-08-21T15:41:35;30.40;61.30
54960;DHT22;40860;51.710;8.736;2023-08-21T15:45:38;30.50;60.00
54960;DHT22;40860;51.710;8.736;2023-08-21T15:49:42;30.20;60.50
54960;DHT22;40860;51.710;8.736;2023-08-21T15:53:45;30.00;61.10
54960;DHT22;40860;51.710;8.736;2023-08-21T15:57:48;29.70;61.50
54960;DHT22;40860;51.710;8.736;2023-08-21T16:01:51;30.00;61.60
54960;DHT22;40860;51.710;8.736;2023-08-21T16:05:56;29.80;61.20
54960;DHT22;40860;51.710;8.736;2023-08-21T16:09:59;29.60;62.10
54960;DHT22;40860;51.710;8.736;2023-08-21T16:14:03;29.50;61.90
54960;DHT22;40860;51.710;8.736;2023-08-21T16:18:09;29.20;61.80
54960;DHT22;40860;51.710;8.736;2023-08-21T16:22:13;29.30;62.30
54960;DHT22;40860;51.710;8.736;2023-08-21T16:26:16;29.30;62.60
54960;DHT22;40860;51.710;8.736;2023-08-21T16:30:19;29.20;62.50
54960;DHT22;40860;51.710;8.736;2023-08-21T16:34:22;28.80;62.70
54960;DHT22;40860;51.710;8.736;2023-08-21T16:38:26;28.20;64.10
54960;DHT22;40860;51.710;8.736;2023-08-21T16:46:34;27.30;66.30
54960;DHT22;40860;51.710;8.736;2023-08-21T16:50:37;27.10;67.60
54960;DHT22;40860;51.710;8.736;2023-08-21T16:54:42;26.90;68.00
54960;DHT22;40860;51.710;8.736;2023-08-21T16:58:45;26.80;67.80
54960;DHT22;40860;51.710;8.736;2023-08-21T17:02:48;26.60;68.30
54960;DHT22;40860;51.710;8.736;2023-08-21T17:06:51;26.40;68.50
54960;DHT22;40860;51.710;8.736;2023-08-21T17:10:56;26.40;68.80
54960;DHT22;40860;51.710;8.736;2023-08-21T17:14:59;26.30;67.70
54960;DHT22;40860;51.710;8.736;2023-08-21T17:19:04;26.00;68.10
54960;DHT22;40860;51.710;8.736;2023-08-21T17:23:07;26.00;69.10
54960;DHT22;40860;51.710;8.736;2023-08-21T17:27:11;25.80;69.60
54960;DHT22;40860;51.710;8.736;2023-08-21T17:31:14;25.70;70.20
54960;DHT22;40860;51.710;8.736;2023-08-21T17:35:17;25.60;69.10
54960;DHT22;40860;51.710;8.736;2023-08-21T17:39:20;25.50;68.50
54960;DHT22;40860;51.710;8.736;2023-08-21T17:43:24;25.50;69.70
54960;DHT22;40860;51.710;8.736;2023-08-21T17:47:27;25.30;69.80
54960;DHT22;40860;51.710;8.736;2023-08-21T17:51:30;25.10;70.10
54960;DHT22;40860;51.710;8.736;2023-08-21T17:55:34;24.90;70.60
54960;DHT22;40860;51.710;8.736;2023-08-21T17:59:39;24.80;70.70
54960;DHT22;40860;51.710;8.736;2023-08-21T18:03:42;24.70;70.60
54960;DHT22;40860;51.710;8.736;2023-08-21T18:07:45;24.60;70.20
54960;DHT22;40860;51.710;8.736;2023-08-21T18:11:48;24.60;69.60
54960;DHT22;40860;51.710;8.736;2023-08-21T18:15:53;24.50;69.30
54960;DHT22;40860;51.710;8.736;2023-08-21T18:19:56;24.50;68.90
54960;DHT22;40860;51.710;8.736;2023-08-21T18:23:59;24.40;69.00
54960;DHT22;40860;51.710;8.736;2023-08-21T18:28:02;24.30;68.40
54960;DHT22;40860;51.710;8.736;2023-08-21T18:32:07;24.30;68.60
54960;DHT22;40860;51.710;8.736;2023-08-21T18:36:12;24.20;68.90
54960;DHT22;40860;51.710;8.736;2023-08-21T18:40:15;24.20;69.10
54960;DHT22;40860;51.710;8.736;2023-08-21T18:44:17;24.10;69.10
54960;DHT22;40860;51.710;8.736;2023-08-21T18:48:22;24.00;69.40
54960;DHT22;40860;51.710;8.736;2023-08-21T18:52:24;24.00;69.40
54960;DHT22;40860;51.710;8.736;2023-08-21T18:56:27;24.00;69.70
54960;DHT22;40860;51.710;8.736;2023-08-21T19:00:30;23.90;70.00
54960;DHT22;40860;51.710;8.736;2023-08-21T19:04:35;23.80;70.00
54960;DHT22;40860;51.710;8.736;2023-08-21T19:08:38;23.80;70.00
54960;DHT22;40860;51.710;8.736;2023-08-21T19:12:42;23.80;70.70
54960;DHT22;40860;51.710;8.736;2023-08-21T19:16:45;23.70;70.40
54960;DHT22;40860;51.710;8.736;2023-08-21T19:20:56;23.70;71.00
54960;DHT22;40860;51.710;8.736;2023-08-21T19:24:59;23.70;71.20
54960;DHT22;40860;51.710;8.736;2023-08-21T19:29:02;23.60;71.40
54960;DHT22;40860;51.710;8.736;2023-08-21T19:33:05;23.60;71.90
54960;DHT22;40860;51.710;8.736;2023-08-21T19:37:09;23.60;71.70
54960;DHT22;40860;51.710;8.736;2023-08-21T19:41:12;23.60;71.30
54960;DHT22;40860;51.710;8.736;2023-08-21T19:45:15;23.50;71.10
54960;DHT22;40860;51.710;8.736;2023-08-21T19:49:21;23.50;72.10
54960;DHT22;40860;51.710;8.736;2023-08-21T19:53:25;23.40;72.20
54960;DHT22;40860;51.710;8.736;2023-08-21T19:57:28;23.40;72.50
54960;DHT22;40860;51.710;8.736;2023-08-21T20:01:31;23.30;72.90
54960;DHT22;40860;51.710;8.736;2023-08-21T20:05:35;23.30;73.90
54960;DHT22;40860;51.710;8.736;2023-08-21T20:09:39;23.10;76.90
54960;DHT22;40860;51.710;8.736;2023-08-21T20:13:44;22.90;77.60
54960;DHT22;40860;51.710;8.736;2023-08-21T20:17:47;22.70;79.10
54960;DHT22;40860;51.710;8.736;2023-08-21T20:21:50;22.60;80.20
54960;DHT22;40860;51.710;8.736;2023-08-21T20:25:54;22.40;80.80
54960;DHT22;40860;51.710;8.736;2023-08-21T20:29:57;22.30;81.60
54960;DHT22;40860;51.710;8.736;2023-08-21T20:34:00;22.20;82.40
54960;DHT22;40860;51.710;8.736;2023-08-21T20:38:03;22.10;83.30
54960;DHT22;40860;51.710;8.736;2023-08-21T20:42:08;22.00;84.30
54960;DHT22;40860;51.710;8.736;2023-08-21T20:46:11;21.90;83.70
54960;DHT22;40860;51.710;8.736;2023-08-21T20:50:14;21.80;84.30
54960;DHT22;40860;51.710;8.736;2023-08-21T20:54:18;21.70;86.30
54960;DHT22;40860;51.710;8.736;2023-08-21T20:58:23;21.60;86.00
54960;DHT22;40860;51.710;8.736;2023-08-21T21:02:26;21.60;86.10
54960;DHT22;40860;51.710;8.736;2023-08-21T21:06:29;21.50;87.90
54960;DHT22;40860;51.710;8.736;2023-08-21T21:10:32;21.40;88.90
54960;DHT22;40860;51.710;8.736;2023-08-21T21:14:36;21.30;90.00
54960;DHT22;40860;51.710;8.736;2023-08-21T21:18:39;21.30;90.50
54960;DHT22;40860;51.710;8.736;2023-08-21T21:22:42;21.10;90.60
54960;DHT22;40860;51.710;8.736;2023-08-21T21:26:45;21.10;91.10
54960;DHT22;40860;51.710;8.736;2023-08-21T21:30:54;21.00;91.70
54960;DHT22;40860;51.710;8.736;2023-08-21T21:34:57;21.00;92.50
54960;DHT22;40860;51.710;8.736;2023-08-21T21:39:00;20.90;92.20
54960;DHT22;40860;51.710;8.736;2023-08-21T21:43:06;20.80;92.10
54960;DHT22;40860;51.710;8.736;2023-08-21T21:47:11;20.80;92.70
54960;DHT22;40860;51.710;8.736;2023-08-21T21:51:14;20.70;92.60
54960;DHT22;40860;51.710;8.736;2023-08-21T21:55:17;20.70;92.80
54960;DHT22;40860;51.710;8.736;2023-08-21T21:59:22;20.70;92.90
54960;DHT22;40860;51.710;8.736;2023-08-21T22:03:29;20.60;93.40
54960;DHT22;40860;51.710;8.736;2023-08-21T22:07:32;20.60;93.80
54960;DHT22;40860;51.710;8.736;2023-08-21T22:11:37;20.40;94.30
54960;DHT22;40860;51.710;8.736;2023-08-21T22:15:41;20.30;94.60
54960;DHT22;40860;51.710;8.736;2023-08-21T22:19:52;20.20;94.70
54960;DHT22;40860;51.710;8.736;2023-08-21T22:23:56;20.20;95.20
54960;DHT22;40860;51.710;8.736;2023-08-21T22:28:02;20.00;95.80
54960;DHT22;40860;51.710;8.736;2023-08-21T22:32:06;19.90;96.20
54960;DHT22;40860;51.710;8.736;2023-08-21T22:36:11;19.90;96.60
54960;DHT22;40860;51.710;8.736;2023-08-21T22:40:13;19.90;96.70
54960;DHT22;40860;51.710;8.736;2023-08-21T22:44:17;19.80;97.40
54960;DHT22;40860;51.710;8.736;2023-08-21T22:48:20;19.70;97.40
54960;DHT22;40860;51.710;8.736;2023-08-21T22:52:25;19.70;97.40
54960;DHT22;40860;51.710;8.736;2023-08-21T22:56:30;19.70;97.40
54960;DHT22;40860;51.710;8.736;2023-08-21T23:00:33;19.60;97.50
54960;DHT22;40860;51.710;8.736;2023-08-21T23:04:36;19.50;97.40
54960;DHT22;40860;51.710;8.736;2023-08-21T23:08:41;19.50;97.60
54960;DHT22;40860;51.710;8.736;2023-08-21T23:12:45;19.50;97.50
54960;DHT22;40860;51.710;8.736;2023-08-21T23:16:49;19.40;97.80
54960;DHT22;40860;51.710;8.736;2023-08-21T23:20:56;19.30;98.00
54960;DHT22;40860;51.710;8.736;2023-08-21T23:25:02;19.30;98.20
54960;DHT22;40860;51.710;8.736;2023-08-21T23:29:06;19.30;98.50
54960;DHT22;40860;51.710;8.736;2023-08-21T23:33:09;19.20;98.30
54960;DHT22;40860;51.710;8.736;2023-08-21T23:37:12;19.10;98.60
54960;DHT22;40860;51.710;8.736;2023-08-21T23:41:17;19.10;98.90
54960;DHT22;40860;51.710;8.736;2023-08-21T23:45:23;19.00;98.80
54960;DHT22;40860;51.710;8.736;2023-08-21T23:49:29;19.10;98.70
54960;DHT22;40860;51.710;8.736;2023-08-21T23:53:32;19.00;98.70
54960;DHT22;40860;51.710;8.736;2023-08-21T23:57:36;19.00;98.80
